sensor_id;sensor_type;location;lat;lon;timestamp;P1;durP1;ratioP1;P2;durP2;ratioP2
34152;SDS011;20426;48.372;10.888;2022-10-28T00:00:15;7.60;;;2.63;;
34152;SDS011;20426;48.372;10.888;2022-10-28T00:00:46;7.43;;;2.50;;
34152;SDS011;20426;48.372;10.888;2022-10-28T00:01:20;9.52;;;2.40;;
34152;SDS011;20426;48.372;10.888;2022-10-28T00:01:53;5.50;;;2.63;;
34152;SDS011;20426;48.372;10.888;2022-10-28T00:02:23;7.78;;;2.50;;
34152;SDS011;20426;48.372;10.888;2022-10-28T00:02:54;5.90;;;2.20;;
34152;SDS011;20426;48.372;10.888;2022-10-28T00:03:25;9.18;;;2.38;;
34152;SDS011;20426;48.372;10.888;2022-10-28T00:03:56;8.30;;;2.47;;
34152;SDS011;20426;48.372;10.888;2022-10-28T00:04:29;4.65;;;2.47;;
34152;SDS011;20426;48.372;10.888;2022-10-28T00:05:00;6.07;;;2.40;;
34152;SDS011;20426;48.372;10.888;2022-10-28T00:05:32;4.25;;;2.47;;
34152;SDS011;20426;48.372;10.888;2022-10-28T00:06:05;5.25;;;2.22;;
34152;SDS011;20426;48.372;10.888;2022-10-28T00:06:46;7.22;;;2.38;;
34152;SDS011;20426;48.372;10.888;2022-10-28T00:07:17;4.95;;;2.78;;
34152;SDS011;20426;48.372;10.888;2022-10-28T00:07:48;6.07;;;2.17;;
34152;SDS011;20426;48.372;10.888;2022-10-28T00:08:18;6.82;;;2.80;;
34152;SDS011;20426;48.372;10.888;2022-10-28T00:08:49;3.83;;;2.28;;
34152;SDS011;20426;48.372;10.888;2022-10-28T00:09:20;3.22;;;2.10;;
34152;SDS011;20426;48.372;10.888;2022-10-28T00:09:51;5.03;;;2.13;;
34152;SDS011;20426;48.372;10.888;2022-10-28T00:10:21;4.38;;;2.20;;
34152;SDS011;20426;48.372;10.888;2022-10-28T00:10:59;6.82;;;2.38;;
34152;SDS011;20426;48.372;10.888;2022-10-28T00:11:34;5.63;;;2.60;;
34152;SDS011;20426;48.372;10.888;2022-10-28T00:12:05;8.60;;;2.17;;
34152;SDS011;20426;48.372;10.888;2022-10-28T00:12:36;5.55;;;2.10;;
34152;SDS011;20426;48.372;10.888;2022-10-28T00:13:07;3.72;;;2.30;;
34152;SDS011;20426;48.372;10.888;2022-10-28T00:13:38;4.57;;;2.65;;
34152;SDS011;20426;48.372;10.888;2022-10-28T00:14:09;3.72;;;2.30;;
34152;SDS011;20426;48.372;10.888;2022-10-28T00:14:40;5.38;;;2.75;;
34152;SDS011;20426;48.372;10.888;2022-10-28T00:15:11;4.85;;;2.45;;
34152;SDS011;20426;48.372;10.888;2022-10-28T00:15:42;3.78;;;2.33;;
34152;SDS011;20426;48.372;10.888;2022-10-28T00:16:13;3.58;;;2.13;;
34152;SDS011;20426;48.372;10.888;2022-10-28T00:16:46;3.80;;;2.47;;
34152;SDS011;20426;48.372;10.888;2022-10-28T00:17:17;8.00;;;2.17;;
34152;SDS011;20426;48.372;10.888;2022-10-28T00:17:47;2.75;;;2.35;;
34152;SDS011;20426;48.372;10.888;2022-10-28T00:18:18;6.70;;;2.63;;
34152;SDS011;20426;48.372;10.888;2022-10-28T00:18:48;5.15;;;2.40;;
34152;SDS011;20426;48.372;10.888;2022-10-28T00:19:22;4.40;;;2.35;;
34152;SDS011;20426;48.372;10.888;2022-10-28T00:19:53;7.68;;;2.40;;
34152;SDS011;20426;48.372;10.888;2022-10-28T00:20:24;5.80;;;2.25;;
34152;SDS011;20426;48.372;10.888;2022-10-28T00:21:01;3.30;;;2.38;;
34152;SDS011;20426;48.372;10.888;2022-10-28T00:21:35;4.07;;;2.13;;
34152;SDS011;20426;48.372;10.888;2022-10-28T00:22:06;3.58;;;2.33;;
34152;SDS011;20426;48.372;10.888;2022-10-28T00:22:37;7.05;;;2.30;;
34152;SDS011;20426;48.372;10.888;2022-10-28T00:23:08;5.85;;;2.55;;
34152;SDS011;20426;48.372;10.888;2022-10-28T00:23:39;7.18;;;2.15;;
34152;SDS011;20426;48.372;10.888;2022-10-28T00:24:11;5.20;;;2.25;;
34152;SDS011;20426;48.372;10.888;2022-10-28T00:24:42;3.28;;;2.05;;
34152;SDS011;20426;48.372;10.888;2022-10-28T00:25:13;4.10;;;2.30;;
34152;SDS011;20426;48.372;10.888;2022-10-28T00:25:44;3.28;;;2.40;;
34152;SDS011;20426;48.372;10.888;2022-10-28T00:26:16;3.95;;;2.17;;
34152;SDS011;20426;48.372;10.888;2022-10-28T00:26:49;5.07;;;2.30;;
34152;SDS011;20426;48.372;10.888;2022-10-28T00:27:20;5.40;;;2.65;;
34152;SDS011;20426;48.372;10.888;2022-10-28T00:27:50;4.18;;;2.55;;
34152;SDS011;20426;48.372;10.888;2022-10-28T00:28:21;6.38;;;2.15;;
34152;SDS011;20426;48.372;10.888;2022-10-28T00:28:56;6.13;;;2.38;;
34152;SDS011;20426;48.372;10.888;2022-10-28T00:29:29;5.45;;;2.42;;
34152;SDS011;20426;48.372;10.888;2022-10-28T00:30:01;2.88;;;1.90;;
34152;SDS011;20426;48.372;10.888;2022-10-28T00:30:32;5.13;;;2.20;;
34152;SDS011;20426;48.372;10.888;2022-10-28T00:31:04;5.50;;;1.95;;
34152;SDS011;20426;48.372;10.888;2022-10-28T00:31:36;3.45;;;2.33;;
34152;SDS011;20426;48.372;10.888;2022-10-28T00:32:07;8.30;;;1.80;;
34152;SDS011;20426;48.372;10.888;2022-10-28T00:32:38;5.45;;;2.20;;
34152;SDS011;20426;48.372;10.888;2022-10-28T00:33:08;5.72;;;2.25;;
34152;SDS011;20426;48.372;10.888;2022-10-28T00:33:39;7.88;;;2.63;;
34152;SDS011;20426;48.372;10.888;2022-10-28T00:34:11;5.65;;;2.58;;
34152;SDS011;20426;48.372;10.888;2022-10-28T00:34:44;4.25;;;2.10;;
34152;SDS011;20426;48.372;10.888;2022-10-28T00:35:14;3.28;;;2.03;;
34152;SDS011;20426;48.372;10.888;2022-10-28T00:35:45;4.75;;;2.28;;
34152;SDS011;20426;48.372;10.888;2022-10-28T00:36:17;5.38;;;2.03;;
34152;SDS011;20426;48.372;10.888;2022-10-28T00:36:49;5.88;;;2.28;;
34152;SDS011;20426;48.372;10.888;2022-10-28T00:37:20;4.20;;;1.85;;
34152;SDS011;20426;48.372;10.888;2022-10-28T00:37:53;5.53;;;2.33;;
34152;SDS011;20426;48.372;10.888;2022-10-28T00:38:24;3.80;;;1.92;;
34152;SDS011;20426;48.372;10.888;2022-10-28T00:38:55;3.95;;;2.50;;
34152;SDS011;20426;48.372;10.888;2022-10-28T00:39:26;7.82;;;2.17;;
34152;SDS011;20426;48.372;10.888;2022-10-28T00:39:57;4.88;;;2.40;;
34152;SDS011;20426;48.372;10.888;2022-10-28T00:40:32;3.33;;;2.15;;
34152;SDS011;20426;48.372;10.888;2022-10-28T00:41:03;2.40;;;2.08;;
34152;SDS011;20426;48.372;10.888;2022-10-28T00:41:36;5.63;;;2.20;;
34152;SDS011;20426;48.372;10.888;2022-10-28T00:42:08;3.22;;;2.15;;
34152;SDS011;20426;48.372;10.888;2022-10-28T00:42:40;4.07;;;2.47;;
34152;SDS011;20426;48.372;10.888;2022-10-28T00:43:11;4.90;;;1.90;;
34152;SDS011;20426;48.372;10.888;2022-10-28T00:43:52;6.32;;;2.30;;
34152;SDS011;20426;48.372;10.888;2022-10-28T00:45:17;5.55;;;2.78;;
34152;SDS011;20426;48.372;10.888;2022-10-28T00:45:47;2.75;;;2.00;;
34152;SDS011;20426;48.372;10.888;2022-10-28T00:47:12;5.60;;;2.05;;
34152;SDS011;20426;48.372;10.888;2022-10-28T00:47:53;4.00;;;2.55;;
34152;SDS011;20426;48.372;10.888;2022-10-28T00:48:27;4.65;;;2.38;;
34152;SDS011;20426;48.372;10.888;2022-10-28T00:48:59;5.00;;;2.10;;
34152;SDS011;20426;48.372;10.888;2022-10-28T00:49:33;5.13;;;2.10;;
34152;SDS011;20426;48.372;10.888;2022-10-28T00:50:08;2.95;;;2.03;;
34152;SDS011;20426;48.372;10.888;2022-10-28T00:50:48;3.63;;;2.88;;
34152;SDS011;20426;48.372;10.888;2022-10-28T00:51:23;3.85;;;2.05;;
34152;SDS011;20426;48.372;10.888;2022-10-28T00:51:56;4.35;;;2.08;;
34152;SDS011;20426;48.372;10.888;2022-10-28T00:52:30;6.03;;;1.80;;
34152;SDS011;20426;48.372;10.888;2022-10-28T00:53:03;5.60;;;1.95;;
34152;SDS011;20426;48.372;10.888;2022-10-28T00:53:37;6.07;;;3.25;;
34152;SDS011;20426;48.372;10.888;2022-10-28T00:54:10;8.70;;;2.58;;
34152;SDS011;20426;48.372;10.888;2022-10-28T00:54:43;3.55;;;2.35;;
34152;SDS011;20426;48.372;10.888;2022-10-28T00:55:15;5.28;;;2.30;;
34152;SDS011;20426;48.372;10.888;2022-10-28T00:55:47;6.30;;;2.20;;
34152;SDS011;20426;48.372;10.888;2022-10-28T00:56:18;3.50;;;1.65;;
34152;SDS011;20426;48.372;10.888;2022-10-28T00:56:52;2.95;;;2.00;;
34152;SDS011;20426;48.372;10.888;2022-10-28T00:57:27;8.20;;;2.10;;
34152;SDS011;20426;48.372;10.888;2022-10-28T00:58:03;5.80;;;2.13;;
34152;SDS011;20426;48.372;10.888;2022-10-28T00:58:35;9.35;;;2.53;;
34152;SDS011;20426;48.372;10.888;2022-10-28T00:59:07;2.85;;;2.03;;
34152;SDS011;20426;48.372;10.888;2022-10-28T00:59:46;6.43;;;2.25;;
34152;SDS011;20426;48.372;10.888;2022-10-28T01:00:21;6.45;;;2.25;;
34152;SDS011;20426;48.372;10.888;2022-10-28T01:00:53;5.88;;;2.70;;
34152;SDS011;20426;48.372;10.888;2022-10-28T01:01:24;6.00;;;2.00;;
34152;SDS011;20426;48.372;10.888;2022-10-28T01:01:55;5.10;;;2.05;;
34152;SDS011;20426;48.372;10.888;2022-10-28T01:02:26;3.30;;;1.98;;
34152;SDS011;20426;48.372;10.888;2022-10-28T01:02:57;3.40;;;1.95;;
34152;SDS011;20426;48.372;10.888;2022-10-28T01:03:28;3.25;;;1.73;;
34152;SDS011;20426;48.372;10.888;2022-10-28T01:03:59;6.40;;;2.10;;
34152;SDS011;20426;48.372;10.888;2022-10-28T01:04:30;6.78;;;3.80;;
34152;SDS011;20426;48.372;10.888;2022-10-28T01:05:01;8.70;;;2.17;;
34152;SDS011;20426;48.372;10.888;2022-10-28T01:05:33;5.97;;;2.10;;
34152;SDS011;20426;48.372;10.888;2022-10-28T01:06:07;2.63;;;1.67;;
34152;SDS011;20426;48.372;10.888;2022-10-28T01:06:39;5.68;;;2.78;;
34152;SDS011;20426;48.372;10.888;2022-10-28T01:07:11;2.22;;;1.70;;
34152;SDS011;20426;48.372;10.888;2022-10-28T01:07:43;4.78;;;2.17;;
34152;SDS011;20426;48.372;10.888;2022-10-28T01:08:14;2.60;;;1.90;;
34152;SDS011;20426;48.372;10.888;2022-10-28T01:08:45;6.93;;;2.00;;
34152;SDS011;20426;48.372;10.888;2022-10-28T01:09:16;4.20;;;2.17;;
34152;SDS011;20426;48.372;10.888;2022-10-28T01:09:47;4.32;;;2.80;;
34152;SDS011;20426;48.372;10.888;2022-10-28T01:10:18;4.75;;;2.00;;
34152;SDS011;20426;48.372;10.888;2022-10-28T01:11:03;3.35;;;2.03;;
34152;SDS011;20426;48.372;10.888;2022-10-28T01:13:07;6.45;;;2.00;;
34152;SDS011;20426;48.372;10.888;2022-10-28T01:13:19;6.55;;;2.25;;
34152;SDS011;20426;48.372;10.888;2022-10-28T01:14:51;6.88;;;2.15;;
34152;SDS011;20426;48.372;10.888;2022-10-28T01:15:43;3.58;;;1.70;;
34152;SDS011;20426;48.372;10.888;2022-10-28T01:18:37;4.50;;;1.90;;
34152;SDS011;20426;48.372;10.888;2022-10-28T01:26:34;4.07;;;1.92;;
34152;SDS011;20426;48.372;10.888;2022-10-28T01:29:48;3.05;;;1.60;;
34152;SDS011;20426;48.372;10.888;2022-10-28T01:30:23;6.88;;;2.10;;
34152;SDS011;20426;48.372;10.888;2022-10-28T01:31:58;2.88;;;1.65;;
34152;SDS011;20426;48.372;10.888;2022-10-28T01:33:24;5.95;;;1.90;;
34152;SDS011;20426;48.372;10.888;2022-10-28T01:36:35;3.10;;;1.80;;
34152;SDS011;20426;48.372;10.888;2022-10-28T01:38:12;4.07;;;1.90;;
34152;SDS011;20426;48.372;10.888;2022-10-28T01:39:08;5.10;;;1.73;;
34152;SDS011;20426;48.372;10.888;2022-10-28T01:42:25;2.47;;;1.85;;
34152;SDS011;20426;48.372;10.888;2022-10-28T01:43:14;4.50;;;1.95;;
34152;SDS011;20426;48.372;10.888;2022-10-28T01:45:07;5.50;;;1.80;;
34152;SDS011;20426;48.372;10.888;2022-10-28T01:45:50;3.38;;;1.60;;
34152;SDS011;20426;48.372;10.888;2022-10-28T01:46:29;6.90;;;1.70;;
34152;SDS011;20426;48.372;10.888;2022-10-28T01:47:19;4.45;;;1.77;;
34152;SDS011;20426;48.372;10.888;2022-10-28T01:47:59;7.75;;;1.52;;
34152;SDS011;20426;48.372;10.888;2022-10-28T01:48:36;3.13;;;1.80;;
34152;SDS011;20426;48.372;10.888;2022-10-28T01:49:20;3.10;;;1.80;;
34152;SDS011;20426;48.372;10.888;2022-10-28T01:50:11;5.57;;;1.75;;
34152;SDS011;20426;48.372;10.888;2022-10-28T01:51:37;6.00;;;2.10;;
34152;SDS011;20426;48.372;10.888;2022-10-28T01:52:13;4.13;;;1.70;;
34152;SDS011;20426;48.372;10.888;2022-10-28T01:52:49;2.50;;;1.45;;
34152;SDS011;20426;48.372;10.888;2022-10-28T01:53:25;3.30;;;1.70;;
34152;SDS011;20426;48.372;10.888;2022-10-28T01:54:00;2.45;;;1.60;;
34152;SDS011;20426;48.372;10.888;2022-10-28T01:54:33;3.17;;;1.55;;
34152;SDS011;20426;48.372;10.888;2022-10-28T01:55:12;3.38;;;1.70;;
34152;SDS011;20426;48.372;10.888;2022-10-28T01:55:48;5.10;;;1.80;;
34152;SDS011;20426;48.372;10.888;2022-10-28T01:56:23;1.73;;;1.25;;
34152;SDS011;20426;48.372;10.888;2022-10-28T01:56:58;3.35;;;2.05;;
34152;SDS011;20426;48.372;10.888;2022-10-28T01:57:32;4.45;;;1.88;;
34152;SDS011;20426;48.372;10.888;2022-10-28T01:58:06;4.80;;;1.98;;
34152;SDS011;20426;48.372;10.888;2022-10-28T01:58:39;3.65;;;1.77;;
34152;SDS011;20426;48.372;10.888;2022-10-28T01:59:12;3.72;;;1.77;;
34152;SDS011;20426;48.372;10.888;2022-10-28T01:59:49;3.10;;;1.52;;
34152;SDS011;20426;48.372;10.888;2022-10-28T02:00:21;2.90;;;1.67;;
34152;SDS011;20426;48.372;10.888;2022-10-28T02:00:52;5.90;;;2.10;;
34152;SDS011;20426;48.372;10.888;2022-10-28T02:01:23;3.85;;;1.90;;
34152;SDS011;20426;48.372;10.888;2022-10-28T02:01:55;2.70;;;1.58;;
34152;SDS011;20426;48.372;10.888;2022-10-28T02:02:26;2.67;;;1.45;;
34152;SDS011;20426;48.372;10.888;2022-10-28T02:03:02;4.10;;;2.28;;
34152;SDS011;20426;48.372;10.888;2022-10-28T02:03:36;3.05;;;1.58;;
34152;SDS011;20426;48.372;10.888;2022-10-28T02:04:07;2.78;;;1.33;;
34152;SDS011;20426;48.372;10.888;2022-10-28T02:04:37;3.75;;;2.20;;
34152;SDS011;20426;48.372;10.888;2022-10-28T02:06:18;4.63;;;1.90;;
34152;SDS011;20426;48.372;10.888;2022-10-28T02:06:54;4.78;;;1.75;;
34152;SDS011;20426;48.372;10.888;2022-10-28T02:07:28;2.25;;;1.58;;
34152;SDS011;20426;48.372;10.888;2022-10-28T02:08:00;2.00;;;1.38;;
34152;SDS011;20426;48.372;10.888;2022-10-28T02:10:06;4.32;;;1.67;;
34152;SDS011;20426;48.372;10.888;2022-10-28T02:11:46;5.65;;;1.50;;
34152;SDS011;20426;48.372;10.888;2022-10-28T02:12:54;2.63;;;1.42;;
34152;SDS011;20426;48.372;10.888;2022-10-28T02:13:30;2.53;;;1.25;;
34152;SDS011;20426;48.372;10.888;2022-10-28T02:15:01;2.90;;;1.67;;
34152;SDS011;20426;48.372;10.888;2022-10-28T02:15:39;5.35;;;1.63;;
34152;SDS011;20426;48.372;10.888;2022-10-28T02:16:26;2.70;;;1.50;;
34152;SDS011;20426;48.372;10.888;2022-10-28T02:17:09;4.07;;;1.70;;
34152;SDS011;20426;48.372;10.888;2022-10-28T02:24:09;1.88;;;1.48;;
34152;SDS011;20426;48.372;10.888;2022-10-28T02:26:28;5.72;;;2.03;;
34152;SDS011;20426;48.372;10.888;2022-10-28T02:27:11;5.22;;;1.67;;
34152;SDS011;20426;48.372;10.888;2022-10-28T02:28:03;3.78;;;1.60;;
34152;SDS011;20426;48.372;10.888;2022-10-28T02:28:41;2.03;;;1.40;;
34152;SDS011;20426;48.372;10.888;2022-10-28T02:29:36;2.30;;;1.50;;
34152;SDS011;20426;48.372;10.888;2022-10-28T02:30:21;2.95;;;1.67;;
34152;SDS011;20426;48.372;10.888;2022-10-28T02:30:56;7.00;;;2.05;;
34152;SDS011;20426;48.372;10.888;2022-10-28T02:31:54;6.03;;;1.90;;
34152;SDS011;20426;48.372;10.888;2022-10-28T02:32:27;2.97;;;1.85;;
34152;SDS011;20426;48.372;10.888;2022-10-28T02:33:02;2.75;;;1.40;;
34152;SDS011;20426;48.372;10.888;2022-10-28T02:33:36;3.05;;;1.35;;
34152;SDS011;20426;48.372;10.888;2022-10-28T02:34:10;4.63;;;1.77;;
34152;SDS011;20426;48.372;10.888;2022-10-28T02:34:46;3.58;;;1.73;;
34152;SDS011;20426;48.372;10.888;2022-10-28T02:36:06;6.63;;;1.80;;
34152;SDS011;20426;48.372;10.888;2022-10-28T02:36:44;5.13;;;1.60;;
34152;SDS011;20426;48.372;10.888;2022-10-28T02:37:23;2.67;;;1.42;;
34152;SDS011;20426;48.372;10.888;2022-10-28T02:37:58;4.97;;;1.90;;
34152;SDS011;20426;48.372;10.888;2022-10-28T02:38:35;3.80;;;1.52;;
34152;SDS011;20426;48.372;10.888;2022-10-28T02:39:13;4.00;;;1.40;;
34152;SDS011;20426;48.372;10.888;2022-10-28T02:39:47;2.20;;;1.58;;
34152;SDS011;20426;48.372;10.888;2022-10-28T02:40:22;2.90;;;1.58;;
34152;SDS011;20426;48.372;10.888;2022-10-28T02:40:57;6.50;;;1.73;;
34152;SDS011;20426;48.372;10.888;2022-10-28T02:41:39;4.82;;;1.77;;
34152;SDS011;20426;48.372;10.888;2022-10-28T02:42:23;3.67;;;1.40;;
34152;SDS011;20426;48.372;10.888;2022-10-28T02:42:58;2.22;;;1.52;;
34152;SDS011;20426;48.372;10.888;2022-10-28T02:43:33;4.72;;;1.58;;
34152;SDS011;20426;48.372;10.888;2022-10-28T02:44:06;5.40;;;1.45;;
34152;SDS011;20426;48.372;10.888;2022-10-28T02:44:43;4.00;;;1.98;;
34152;SDS011;20426;48.372;10.888;2022-10-28T02:45:20;2.63;;;1.17;;
34152;SDS011;20426;48.372;10.888;2022-10-28T02:45:55;6.20;;;1.60;;
34152;SDS011;20426;48.372;10.888;2022-10-28T02:46:28;2.05;;;1.50;;
34152;SDS011;20426;48.372;10.888;2022-10-28T02:47:04;3.30;;;1.67;;
34152;SDS011;20426;48.372;10.888;2022-10-28T02:47:42;3.30;;;1.52;;
34152;SDS011;20426;48.372;10.888;2022-10-28T02:48:18;3.30;;;1.73;;
34152;SDS011;20426;48.372;10.888;2022-10-28T02:49:00;3.10;;;2.00;;
34152;SDS011;20426;48.372;10.888;2022-10-28T02:49:35;2.67;;;1.50;;
34152;SDS011;20426;48.372;10.888;2022-10-28T02:50:09;2.35;;;1.45;;
34152;SDS011;20426;48.372;10.888;2022-10-28T02:50:45;3.10;;;1.50;;
34152;SDS011;20426;48.372;10.888;2022-10-28T02:51:23;2.08;;;1.55;;
34152;SDS011;20426;48.372;10.888;2022-10-28T02:51:59;3.25;;;1.48;;
34152;SDS011;20426;48.372;10.888;2022-10-28T02:52:33;2.58;;;1.60;;
34152;SDS011;20426;48.372;10.888;2022-10-28T02:53:15;2.42;;;1.50;;
34152;SDS011;20426;48.372;10.888;2022-10-28T02:54:01;2.83;;;1.30;;
34152;SDS011;20426;48.372;10.888;2022-10-28T02:54:38;3.85;;;1.40;;
34152;SDS011;20426;48.372;10.888;2022-10-28T02:55:19;4.05;;;1.35;;
34152;SDS011;20426;48.372;10.888;2022-10-28T02:55:53;3.53;;;1.33;;
34152;SDS011;20426;48.372;10.888;2022-10-28T02:56:26;2.60;;;1.80;;
34152;SDS011;20426;48.372;10.888;2022-10-28T02:57:03;6.63;;;1.70;;
34152;SDS011;20426;48.372;10.888;2022-10-28T02:57:39;2.85;;;1.48;;
34152;SDS011;20426;48.372;10.888;2022-10-28T02:58:12;4.93;;;1.38;;
34152;SDS011;20426;48.372;10.888;2022-10-28T02:58:43;3.05;;;1.33;;
34152;SDS011;20426;48.372;10.888;2022-10-28T02:59:14;2.80;;;2.05;;
34152;SDS011;20426;48.372;10.888;2022-10-28T03:00:19;7.72;;;1.83;;
34152;SDS011;20426;48.372;10.888;2022-10-28T03:00:47;3.58;;;1.58;;
34152;SDS011;20426;48.372;10.888;2022-10-28T03:01:18;2.47;;;1.52;;
34152;SDS011;20426;48.372;10.888;2022-10-28T03:01:49;1.92;;;1.45;;
34152;SDS011;20426;48.372;10.888;2022-10-28T03:02:21;6.22;;;1.70;;
34152;SDS011;20426;48.372;10.888;2022-10-28T03:02:52;7.90;;;1.95;;
34152;SDS011;20426;48.372;10.888;2022-10-28T03:03:23;5.22;;;1.83;;
34152;SDS011;20426;48.372;10.888;2022-10-28T03:03:54;4.80;;;1.60;;
34152;SDS011;20426;48.372;10.888;2022-10-28T03:04:24;3.15;;;1.38;;
34152;SDS011;20426;48.372;10.888;2022-10-28T03:04:55;2.97;;;1.63;;
34152;SDS011;20426;48.372;10.888;2022-10-28T03:05:26;4.68;;;1.75;;
34152;SDS011;20426;48.372;10.888;2022-10-28T03:05:56;4.32;;;1.85;;
34152;SDS011;20426;48.372;10.888;2022-10-28T03:06:27;2.17;;;1.40;;
34152;SDS011;20426;48.372;10.888;2022-10-28T03:06:58;2.22;;;1.40;;
34152;SDS011;20426;48.372;10.888;2022-10-28T03:07:28;5.38;;;1.95;;
34152;SDS011;20426;48.372;10.888;2022-10-28T03:07:59;4.10;;;1.58;;
34152;SDS011;20426;48.372;10.888;2022-10-28T03:08:30;2.55;;;1.58;;
34152;SDS011;20426;48.372;10.888;2022-10-28T03:09:01;2.88;;;1.48;;
34152;SDS011;20426;48.372;10.888;2022-10-28T03:09:31;4.10;;;1.60;;
34152;SDS011;20426;48.372;10.888;2022-10-28T03:10:02;6.40;;;1.95;;
34152;SDS011;20426;48.372;10.888;2022-10-28T03:10:34;7.22;;;1.95;;
34152;SDS011;20426;48.372;10.888;2022-10-28T03:11:04;4.22;;;1.80;;
34152;SDS011;20426;48.372;10.888;2022-10-28T03:11:35;6.38;;;1.65;;
34152;SDS011;20426;48.372;10.888;2022-10-28T03:12:06;3.35;;;1.25;;
34152;SDS011;20426;48.372;10.888;2022-10-28T03:12:39;3.03;;;1.77;;
34152;SDS011;20426;48.372;10.888;2022-10-28T03:13:09;3.13;;;1.52;;
34152;SDS011;20426;48.372;10.888;2022-10-28T03:13:40;3.80;;;1.88;;
34152;SDS011;20426;48.372;10.888;2022-10-28T03:14:11;4.60;;;1.80;;
34152;SDS011;20426;48.372;10.888;2022-10-28T03:14:41;3.60;;;1.60;;
34152;SDS011;20426;48.372;10.888;2022-10-28T03:15:12;1.95;;;1.55;;
34152;SDS011;20426;48.372;10.888;2022-10-28T03:15:43;3.30;;;1.70;;
34152;SDS011;20426;48.372;10.888;2022-10-28T03:16:15;5.57;;;1.83;;
34152;SDS011;20426;48.372;10.888;2022-10-28T03:16:46;6.20;;;1.75;;
34152;SDS011;20426;48.372;10.888;2022-10-28T03:17:17;4.18;;;1.60;;
34152;SDS011;20426;48.372;10.888;2022-10-28T03:17:47;5.55;;;1.67;;
34152;SDS011;20426;48.372;10.888;2022-10-28T03:18:18;2.20;;;1.33;;
34152;SDS011;20426;48.372;10.888;2022-10-28T03:18:49;2.70;;;1.40;;
34152;SDS011;20426;48.372;10.888;2022-10-28T03:19:19;5.70;;;1.67;;
34152;SDS011;20426;48.372;10.888;2022-10-28T03:19:50;4.32;;;1.60;;
34152;SDS011;20426;48.372;10.888;2022-10-28T03:20:21;3.17;;;1.67;;
34152;SDS011;20426;48.372;10.888;2022-10-28T03:20:52;4.13;;;2.15;;
34152;SDS011;20426;48.372;10.888;2022-10-28T03:21:22;3.97;;;1.52;;
34152;SDS011;20426;48.372;10.888;2022-10-28T03:21:53;5.47;;;1.88;;
34152;SDS011;20426;48.372;10.888;2022-10-28T03:22:24;3.47;;;1.50;;
34152;SDS011;20426;48.372;10.888;2022-10-28T03:22:55;3.30;;;1.65;;
34152;SDS011;20426;48.372;10.888;2022-10-28T03:23:26;2.20;;;1.27;;
34152;SDS011;20426;48.372;10.888;2022-10-28T03:23:57;1.83;;;1.20;;
34152;SDS011;20426;48.372;10.888;2022-10-28T03:24:27;4.13;;;1.50;;
34152;SDS011;20426;48.372;10.888;2022-10-28T03:24:58;3.15;;;1.60;;
34152;SDS011;20426;48.372;10.888;2022-10-28T03:25:29;3.63;;;1.70;;
34152;SDS011;20426;48.372;10.888;2022-10-28T03:25:59;2.70;;;1.33;;
34152;SDS011;20426;48.372;10.888;2022-10-28T03:26:30;2.22;;;1.40;;
34152;SDS011;20426;48.372;10.888;2022-10-28T03:27:01;1.92;;;1.50;;
34152;SDS011;20426;48.372;10.888;2022-10-28T03:27:32;5.05;;;1.58;;
34152;SDS011;20426;48.372;10.888;2022-10-28T03:28:02;3.17;;;1.38;;
34152;SDS011;20426;48.372;10.888;2022-10-28T03:28:33;3.63;;;2.22;;
34152;SDS011;20426;48.372;10.888;2022-10-28T03:29:04;1.98;;;1.30;;
34152;SDS011;20426;48.372;10.888;2022-10-28T03:29:35;4.65;;;1.50;;
34152;SDS011;20426;48.372;10.888;2022-10-28T03:30:06;5.13;;;1.42;;
34152;SDS011;20426;48.372;10.888;2022-10-28T03:30:37;5.18;;;1.58;;
34152;SDS011;20426;48.372;10.888;2022-10-28T03:31:07;4.70;;;1.65;;
34152;SDS011;20426;48.372;10.888;2022-10-28T03:31:38;1.92;;;1.40;;
34152;SDS011;20426;48.372;10.888;2022-10-28T03:32:09;8.00;;;1.35;;
34152;SDS011;20426;48.372;10.888;2022-10-28T03:32:40;3.42;;;1.48;;
34152;SDS011;20426;48.372;10.888;2022-10-28T03:33:11;4.80;;;1.70;;
34152;SDS011;20426;48.372;10.888;2022-10-28T03:33:42;2.60;;;1.52;;
34152;SDS011;20426;48.372;10.888;2022-10-28T03:34:13;2.63;;;1.30;;
34152;SDS011;20426;48.372;10.888;2022-10-28T03:34:44;4.40;;;1.83;;
34152;SDS011;20426;48.372;10.888;2022-10-28T03:35:16;2.60;;;1.58;;
34152;SDS011;20426;48.372;10.888;2022-10-28T03:35:47;2.08;;;1.50;;
34152;SDS011;20426;48.372;10.888;2022-10-28T03:36:17;4.35;;;1.50;;
34152;SDS011;20426;48.372;10.888;2022-10-28T03:36:48;4.00;;;1.50;;
34152;SDS011;20426;48.372;10.888;2022-10-28T03:37:19;5.43;;;1.50;;
34152;SDS011;20426;48.372;10.888;2022-10-28T03:37:49;3.50;;;1.48;;
34152;SDS011;20426;48.372;10.888;2022-10-28T03:38:20;2.67;;;1.50;;
34152;SDS011;20426;48.372;10.888;2022-10-28T03:38:51;3.78;;;1.50;;
34152;SDS011;20426;48.372;10.888;2022-10-28T03:39:21;3.15;;;1.83;;
34152;SDS011;20426;48.372;10.888;2022-10-28T03:39:52;4.28;;;1.88;;
34152;SDS011;20426;48.372;10.888;2022-10-28T03:40:23;1.67;;;1.20;;
34152;SDS011;20426;48.372;10.888;2022-10-28T03:40:54;2.75;;;1.35;;
34152;SDS011;20426;48.372;10.888;2022-10-28T03:41:24;4.22;;;1.75;;
34152;SDS011;20426;48.372;10.888;2022-10-28T03:41:55;5.03;;;1.60;;
34152;SDS011;20426;48.372;10.888;2022-10-28T03:42:26;5.03;;;1.90;;
34152;SDS011;20426;48.372;10.888;2022-10-28T03:42:57;2.30;;;1.35;;
34152;SDS011;20426;48.372;10.888;2022-10-28T03:43:28;5.30;;;1.83;;
34152;SDS011;20426;48.372;10.888;2022-10-28T03:43:58;6.15;;;1.90;;
34152;SDS011;20426;48.372;10.888;2022-10-28T03:44:29;3.22;;;1.67;;
34152;SDS011;20426;48.372;10.888;2022-10-28T03:45:00;3.42;;;1.73;;
34152;SDS011;20426;48.372;10.888;2022-10-28T03:45:30;3.17;;;1.80;;
34152;SDS011;20426;48.372;10.888;2022-10-28T03:46:01;4.03;;;1.60;;
34152;SDS011;20426;48.372;10.888;2022-10-28T03:46:32;4.15;;;2.20;;
34152;SDS011;20426;48.372;10.888;2022-10-28T03:47:02;7.78;;;1.63;;
34152;SDS011;20426;48.372;10.888;2022-10-28T03:47:33;3.67;;;1.45;;
34152;SDS011;20426;48.372;10.888;2022-10-28T03:48:04;5.22;;;2.05;;
34152;SDS011;20426;48.372;10.888;2022-10-28T03:48:35;4.03;;;1.30;;
34152;SDS011;20426;48.372;10.888;2022-10-28T03:49:06;2.28;;;1.67;;
34152;SDS011;20426;48.372;10.888;2022-10-28T03:49:37;5.47;;;1.70;;
34152;SDS011;20426;48.372;10.888;2022-10-28T03:50:07;3.85;;;1.95;;
34152;SDS011;20426;48.372;10.888;2022-10-28T03:50:38;3.10;;;1.38;;
34152;SDS011;20426;48.372;10.888;2022-10-28T03:51:09;6.90;;;1.83;;
34152;SDS011;20426;48.372;10.888;2022-10-28T03:51:40;3.53;;;1.27;;
34152;SDS011;20426;48.372;10.888;2022-10-28T03:52:11;5.78;;;1.35;;
34152;SDS011;20426;48.372;10.888;2022-10-28T03:52:42;3.03;;;1.30;;
34152;SDS011;20426;48.372;10.888;2022-10-28T03:53:13;3.30;;;2.00;;
34152;SDS011;20426;48.372;10.888;2022-10-28T03:53:44;3.75;;;1.83;;
34152;SDS011;20426;48.372;10.888;2022-10-28T03:54:14;4.68;;;1.90;;
34152;SDS011;20426;48.372;10.888;2022-10-28T03:54:45;5.28;;;1.80;;
34152;SDS011;20426;48.372;10.888;2022-10-28T03:55:16;1.98;;;1.33;;
34152;SDS011;20426;48.372;10.888;2022-10-28T03:55:51;4.38;;;1.48;;
34152;SDS011;20426;48.372;10.888;2022-10-28T03:56:24;2.70;;;1.63;;
34152;SDS011;20426;48.372;10.888;2022-10-28T03:56:55;5.82;;;2.03;;
34152;SDS011;20426;48.372;10.888;2022-10-28T03:57:28;2.40;;;1.50;;
34152;SDS011;20426;48.372;10.888;2022-10-28T03:58:01;7.25;;;1.58;;
34152;SDS011;20426;48.372;10.888;2022-10-28T03:58:32;3.33;;;1.70;;
34152;SDS011;20426;48.372;10.888;2022-10-28T03:59:03;4.53;;;1.95;;